Time;durP1;ratioP1;P1;durP2;ratioP2;P2;SDS_P1;SDS_P2;PMS_P1;PMS_P2;Temp;Humidity;BMP_temperature;BMP_pressure;BME280_temperature;BME280_humidity;BME280_pressure;Samples;Min_cycle;Max_cycle;Signal;HPM_P1;HPM_P2
2022/01/27 00:02:51;;;;;;;42.30;21.73;;;5.30;99.90;;;;;;4782140;29;20051;-67
2022/01/27 00:05:20;;;;;;;38.42;21.17;;;5.30;99.90;;;;;;4783400;29;20104;-67
2022/01/27 00:08:13;;;;;;;38.50;20.88;;;5.40;99.90;;;;;;4783260;29;20234;-67
2022/01/27 00:13:15;;;;;;;41.28;22.08;;;5.40;99.90;;;;;;4782320;29;20496;-67
2022/01/27 00:15:47;;;;;;;39.85;21.67;;;5.50;99.90;;;;;;4782583;29;20042;-67
2022/01/27 00:18:19;;;;;;;39.15;21.85;;;5.30;99.90;;;;;;4782001;29;20051;-67
2022/01/27 00:20:46;;;;;;;40.65;22.00;;;5.40;99.90;;;;;;4781654;29;20502;-67
2022/01/27 00:23:12;;;;;;;38.80;21.52;;;5.30;99.90;;;;;;4780666;29;20374;-67
2022/01/27 00:25:38;;;;;;;35.47;20.75;;;5.40;99.90;;;;;;4781301;29;20055;-66
2022/01/27 00:28:05;;;;;;;33.80;20.88;;;5.40;99.90;;;;;;4781739;29;20062;-66
2022/01/27 00:30:36;;;;;;;36.95;20.88;;;5.40;99.90;;;;;;4780203;29;20043;-66
2022/01/27 00:33:03;;;;;;;37.90;21.38;;;5.40;99.90;;;;;;4781101;29;20050;-66
2022/01/27 00:35:32;;;;;;;39.05;20.42;;;5.40;99.90;;;;;;4782695;29;20047;-67
2022/01/27 00:37:58;;;;;;;39.78;20.05;;;5.40;99.90;;;;;;4783159;29;20051;-67
2022/01/27 00:40:24;;;;;;;30.73;18.85;;;5.30;99.90;;;;;;4782951;29;20031;-67
2022/01/27 00:42:50;;;;;;;36.28;20.45;;;5.40;99.90;;;;;;4782720;29;20491;-66
2022/01/27 00:45:16;;;;;;;34.22;19.73;;;5.50;99.90;;;;;;4766997;29;20400;-67
2022/01/27 00:47:42;;;;;;;35.58;20.02;;;5.40;99.90;;;;;;4781868;29;20055;-67
2022/01/27 00:50:08;;;;;;;36.17;18.65;;;5.40;99.90;;;;;;4782712;29;20602;-67
2022/01/27 00:52:39;;;;;;;36.78;19.90;;;5.40;99.90;;;;;;4782720;29;20062;-67
2022/01/27 00:55:06;;;;;;;33.50;19.45;;;5.40;99.90;;;;;;4782567;29;20577;-67
2022/01/27 01:00:08;;;;;;;30.92;17.65;;;5.40;99.90;;;;;;4782453;29;20694;-67
2022/01/27 01:07:51;;;;;;;31.30;18.60;;;5.50;99.90;;;;;;4782869;29;20047;-67
2022/01/27 01:15:51;;;;;;;34.67;19.13;;;5.50;99.90;;;;;;4785673;29;20066;-67
2022/01/27 01:18:42;;;;;;;35.10;19.75;;;5.50;99.90;;;;;;4786096;29;20047;-66
2022/01/27 01:32:59;;;;;;;32.67;18.67;;;5.50;99.90;;;;;;4784974;29;20454;-67
2022/01/27 01:35:00;;;;;;;34.13;19.08;;;5.40;99.90;;;;;;4777244;29;20047;-67
2022/01/27 01:37:26;;;;;;;36.67;19.13;;;5.40;99.90;;;;;;4768935;29;20059;-66
2022/01/27 01:39:51;;;;;;;31.75;18.92;;;5.40;99.90;;;;;;4783862;29;20058;-67
2022/01/27 01:42:17;;;;;;;36.60;20.10;;;5.40;99.90;;;;;;4785049;29;20077;-67
2022/01/27 01:44:45;;;;;;;38.28;20.45;;;5.40;99.90;;;;;;4785569;29;20055;-67
2022/01/27 01:47:11;;;;;;;34.80;19.27;;;5.40;99.90;;;;;;4784960;29;20047;-67
2022/01/27 01:49:36;;;;;;;37.97;20.65;;;5.40;99.90;;;;;;4785290;29;20520;-66
2022/01/27 01:52:07;;;;;;;38.25;20.17;;;5.40;99.90;;;;;;4783933;29;20512;-67
2022/01/27 01:54:34;;;;;;;38.05;20.40;;;5.40;99.90;;;;;;4785549;29;20104;-67
2022/01/27 01:57:00;;;;;;;41.58;21.50;;;5.30;99.90;;;;;;4785103;29;20054;-67
2022/01/27 01:59:25;;;;;;;38.35;20.20;;;5.40;99.90;;;;;;4785291;29;20430;-67
2022/01/27 02:01:51;;;;;;;34.35;20.60;;;5.40;99.90;;;;;;4783131;29;20058;-66
2022/01/27 02:04:17;;;;;;;37.47;20.70;;;5.40;99.90;;;;;;4784977;29;20477;-67
2022/01/27 02:06:50;;;;;;;36.00;20.70;;;5.40;99.90;;;;;;4784309;29;20043;-66
2022/01/27 02:09:25;;;;;;;36.78;19.58;;;5.40;99.90;;;;;;4782784;29;20065;-67
2022/01/27 02:20:07;;;;;;;39.40;21.23;;;5.40;99.90;;;;;;4783960;29;20115;-66
2022/01/27 02:22:33;;;;;;;38.83;21.73;;;5.30;99.90;;;;;;4782875;29;20056;-66
2022/01/27 02:24:59;;;;;;;40.58;20.80;;;5.30;99.90;;;;;;4784664;29;20104;-67
2022/01/27 02:27:25;;;;;;;40.08;22.48;;;5.30;99.90;;;;;;4781947;29;20051;-66
2022/01/27 02:29:51;;;;;;;39.78;21.50;;;5.20;99.90;;;;;;4783752;29;20055;-67
2022/01/27 02:32:18;;;;;;;34.33;20.80;;;5.20;99.90;;;;;;4784400;29;20594;-67
2022/01/27 02:34:44;;;;;;;38.17;21.30;;;5.10;99.90;;;;;;4784487;29;20051;-67
2022/01/27 02:37:11;;;;;;;34.65;21.33;;;5.10;99.90;;;;;;4784300;29;20047;-67
2022/01/27 02:39:37;;;;;;;38.85;21.25;;;5.10;99.90;;;;;;4783628;29;20063;-67
2022/01/27 02:42:35;;;;;;;39.35;21.88;;;5.10;99.90;;;;;;4785274;29;20047;-67
2022/01/27 02:45:32;;;;;;;35.25;21.15;;;5.10;99.90;;;;;;4783287;29;20047;-67
2022/01/27 02:47:58;;;;;;;35.50;21.08;;;5.10;99.90;;;;;;4784135;29;20039;-67
2022/01/27 02:50:24;;;;;;;36.28;20.83;;;5.10;99.90;;;;;;4782613;29;20057;-67
2022/01/27 02:52:49;;;;;;;35.30;20.52;;;5.10;99.90;;;;;;4784450;29;20443;-67
2022/01/27 02:55:15;;;;;;;35.13;20.77;;;5.10;99.90;;;;;;4784020;29;20070;-67
2022/01/27 02:57:41;;;;;;;40.03;21.80;;;5.10;99.90;;;;;;4784415;29;20035;-67
2022/01/27 03:00:07;;;;;;;43.90;22.55;;;5.10;99.90;;;;;;4783174;29;20058;-67
2022/01/27 03:02:35;;;;;;;39.70;22.08;;;5.10;99.90;;;;;;4784461;29;20411;-67
2022/01/27 03:05:01;;;;;;;37.45;21.15;;;5.20;99.90;;;;;;4783981;29;20139;-67
2022/01/27 03:07:27;;;;;;;38.60;22.33;;;5.20;99.90;;;;;;4783477;29;20055;-67
2022/01/27 03:09:54;;;;;;;36.33;21.33;;;5.20;99.90;;;;;;4783388;29;20100;-67
2022/01/27 03:12:24;;;;;;;33.97;20.42;;;5.20;99.90;;;;;;4784815;29;20401;-67
2022/01/27 03:14:49;;;;;;;36.80;21.55;;;5.30;99.90;;;;;;4782442;29;20135;-67
2022/01/27 03:17:15;;;;;;;34.67;20.85;;;5.30;99.90;;;;;;4784615;29;20118;-67
2022/01/27 03:19:41;;;;;;;40.05;20.02;;;5.30;99.90;;;;;;4784826;29;20047;-67
2022/01/27 03:22:08;;;;;;;37.13;20.75;;;5.50;99.90;;;;;;4782279;29;20040;-67
2022/01/27 03:24:35;;;;;;;41.83;21.92;;;5.40;99.90;;;;;;4782651;29;20054;-66
2022/01/27 03:27:02;;;;;;;36.70;20.65;;;5.30;99.90;;;;;;4782184;29;20062;-67
2022/01/27 03:29:28;;;;;;;40.15;21.85;;;5.30;99.90;;;;;;4783320;29;20047;-67
2022/01/27 03:31:54;;;;;;;37.30;20.58;;;5.30;99.90;;;;;;4782197;29;20554;-67
2022/01/27 03:34:21;;;;;;;42.85;21.65;;;5.70;99.90;;;;;;4783653;29;20039;-67
2022/01/27 03:36:47;;;;;;;41.88;22.08;;;5.40;99.90;;;;;;4783793;29;20054;-66
2022/01/27 03:39:16;;;;;;;36.45;20.60;;;5.40;99.90;;;;;;4783121;29;20051;-67
2022/01/27 03:41:49;;;;;;;34.85;19.50;;;5.40;99.90;;;;;;4783370;29;20047;-67
2022/01/27 03:44:15;;;;;;;39.85;20.30;;;5.40;99.90;;;;;;4782295;29;20151;-67
2022/01/27 03:46:41;;;;;;;38.15;21.15;;;5.40;99.90;;;;;;4783534;29;20047;-67
2022/01/27 03:49:07;;;;;;;37.33;22.08;;;5.40;99.90;;;;;;4783401;29;20104;-67
2022/01/27 03:51:32;;;;;;;42.90;22.75;;;5.40;99.90;;;;;;4781542;29;20124;-66
2022/01/27 03:53:58;;;;;;;37.90;21.38;;;5.40;99.90;;;;;;4781375;29;20058;-67
2022/01/27 03:56:24;;;;;;;42.13;21.00;;;5.40;99.90;;;;;;4782174;29;20519;-67
2022/01/27 03:58:50;;;;;;;39.72;21.70;;;5.40;99.90;;;;;;4781170;29;20533;-67
2022/01/27 04:01:17;;;;;;;40.85;22.02;;;5.50;99.90;;;;;;4781572;29;20044;-66
2022/01/27 04:03:43;;;;;;;39.67;21.48;;;5.40;99.90;;;;;;4781885;29;20083;-66
2022/01/27 04:06:10;;;;;;;39.58;21.83;;;5.40;99.90;;;;;;4781334;29;20047;-66
2022/01/27 04:08:37;;;;;;;39.72;22.75;;;5.40;99.90;;;;;;4782231;29;20157;-66
2022/01/27 04:11:08;;;;;;;39.22;23.08;;;5.40;99.90;;;;;;4783130;29;20051;-67
2022/01/27 04:13:34;;;;;;;40.17;21.45;;;5.50;99.90;;;;;;4781929;29;20062;-67
2022/01/27 04:15:59;;;;;;;36.63;19.98;;;5.40;99.90;;;;;;4783152;29;20450;-67
2022/01/27 04:18:25;;;;;;;35.88;20.27;;;5.40;99.90;;;;;;4781365;29;20039;-67
2022/01/27 04:20:51;;;;;;;36.47;21.10;;;5.40;99.90;;;;;;4783466;29;20039;-67
2022/01/27 04:23:18;;;;;;;38.65;20.58;;;5.50;99.90;;;;;;4783202;29;20112;-66
2022/01/27 04:25:48;;;;;;;39.85;20.48;;;5.50;99.90;;;;;;4782100;29;20117;-67
2022/01/27 04:28:20;;;;;;;38.85;21.25;;;5.50;99.90;;;;;;4781690;29;20071;-67
2022/01/27 04:30:47;;;;;;;43.42;19.65;;;5.50;99.90;;;;;;4782824;29;20047;-67
2022/01/27 04:33:13;;;;;;;40.28;22.33;;;5.60;99.90;;;;;;4783462;29;20044;-66
2022/01/27 04:35:45;;;;;;;34.67;20.10;;;5.60;99.90;;;;;;4782287;29;20046;-67
2022/01/27 04:40:54;;;;;;;40.13;20.05;;;5.60;99.90;;;;;;4782500;29;20370;-67
2022/01/27 04:46:12;;;;;;;32.63;20.05;;;5.60;99.90;;;;;;4786118;29;20108;-67
2022/01/27 04:48:49;;;;;;;40.22;20.98;;;5.60;99.90;;;;;;4785516;29;20047;-67
2022/01/27 04:51:18;;;;;;;41.13;18.95;;;5.60;99.90;;;;;;4785507;29;20451;-68
2022/01/27 04:53:51;;;;;;;35.75;19.77;;;5.60;99.90;;;;;;4786235;29;20043;-67
2022/01/27 04:56:20;;;;;;;35.25;20.23;;;5.60;99.90;;;;;;4785879;29;20133;-67
2022/01/27 04:58:48;;;;;;;34.60;19.27;;;5.70;99.90;;;;;;4785867;29;20054;-67
2022/01/27 05:01:16;;;;;;;35.15;19.52;;;5.70;99.90;;;;;;4784253;29;20536;-66
2022/01/27 05:03:50;;;;;;;40.33;20.13;;;5.70;99.90;;;;;;4786114;29;20143;-67
2022/01/27 05:06:16;;;;;;;37.35;20.33;;;5.70;99.90;;;;;;4785366;29;20051;-67
2022/01/27 05:08:42;;;;;;;37.08;19.67;;;5.70;99.90;;;;;;4785543;29;20124;-67
2022/01/27 05:11:33;;;;;;;33.15;18.75;;;5.60;99.90;;;;;;4784642;29;20049;-67
2022/01/27 05:14:04;;;;;;;;;;;5.60;99.90;;;;;;4786053;29;20100;-67
2022/01/27 05:16:30;;;;;;;39.90;20.25;;;5.70;99.90;;;;;;4783995;29;20347;-67
2022/01/27 05:18:56;;;;;;;38.53;19.08;;;5.70;99.90;;;;;;4783050;29;20122;-67
2022/01/27 05:21:22;;;;;;;36.08;18.88;;;5.70;99.90;;;;;;4784103;29;20447;-67
2022/01/27 05:23:48;;;;;;;33.97;18.33;;;5.70;99.90;;;;;;4784196;29;20051;-66
2022/01/27 05:26:14;;;;;;;34.30;20.27;;;5.70;99.90;;;;;;4784241;29;20059;-67
2022/01/27 05:28:40;;;;;;;34.17;18.17;;;5.80;99.90;;;;;;4785346;29;20088;-67
2022/01/27 05:31:05;;;;;;;33.63;17.67;;;5.70;99.90;;;;;;4785669;29;20389;-67
2022/01/27 05:33:32;;;;;;;34.30;18.10;;;5.80;99.90;;;;;;4785103;29;20112;-67
2022/01/27 05:35:59;;;;;;;31.13;17.55;;;5.80;99.90;;;;;;4784073;29;20043;-67
2022/01/27 05:38:24;;;;;;;39.67;17.52;;;5.80;99.90;;;;;;4785811;29;20043;-67
2022/01/27 05:40:50;;;;;;;39.28;19.63;;;5.90;99.90;;;;;;4783278;29;20051;-67
2022/01/27 05:43:16;;;;;;;34.83;18.33;;;5.90;99.90;;;;;;4784313;29;20050;-67
2022/01/27 05:45:42;;;;;;;34.97;17.92;;;5.80;99.90;;;;;;4784075;29;20043;-67
2022/01/27 05:48:08;;;;;;;37.92;18.50;;;5.80;99.90;;;;;;4785147;29;20511;-67
2022/01/27 05:50:35;;;;;;;36.92;18.58;;;5.70;99.90;;;;;;4783514;29;20059;-67
2022/01/27 05:53:01;;;;;;;38.97;19.50;;;5.80;99.90;;;;;;4784835;29;20051;-68
2022/01/27 05:55:26;;;;;;;33.78;18.75;;;5.80;99.90;;;;;;4783210;29;20043;-66
2022/01/27 05:57:52;;;;;;;37.28;19.73;;;5.80;99.90;;;;;;4785088;29;20501;-67
2022/01/27 06:00:18;;;;;;;32.80;18.00;;;5.70;99.90;;;;;;4784810;29;20047;-67
2022/01/27 06:02:44;;;;;;;40.38;21.20;;;5.70;99.90;;;;;;4781366;29;20055;-67
2022/01/27 06:05:10;;;;;;;41.22;20.58;;;5.70;99.90;;;;;;4783767;29;20062;-67
2022/01/27 06:07:35;;;;;;;41.35;20.55;;;5.70;99.90;;;;;;4784515;29;20055;-67
2022/01/27 06:10:03;;;;;;;41.80;19.85;;;5.60;99.90;;;;;;4783356;29;20481;-67
2022/01/27 06:12:29;;;;;;;43.22;20.88;;;5.60;99.90;;;;;;4784080;29;20055;-66
2022/01/27 06:14:54;;;;;;;37.70;19.35;;;5.50;99.90;;;;;;4785019;29;20104;-67
2022/01/27 06:17:20;;;;;;;46.58;20.85;;;5.60;99.90;;;;;;4784744;29;20035;-67
2022/01/27 06:19:47;;;;;;;48.20;21.45;;;5.60;99.90;;;;;;4782201;29;20047;-67
2022/01/27 06:22:14;;;;;;;38.90;19.25;;;5.60;99.90;;;;;;4783855;29;20051;-67
2022/01/27 06:24:44;;;;;;;39.97;19.60;;;5.50;99.90;;;;;;4784788;29;20054;-67
2022/01/27 06:27:11;;;;;;;45.33;22.05;;;5.50;99.90;;;;;;4781829;29;20059;-67
2022/01/27 06:29:38;;;;;;;47.28;20.27;;;5.50;99.90;;;;;;4768115;29;20788;-67
2022/01/27 06:32:05;;;;;;;41.60;20.50;;;5.50;99.90;;;;;;4783883;29;20055;-68
2022/01/27 06:34:31;;;;;;;47.08;20.90;;;5.50;99.90;;;;;;4768494;29;20094;-67
2022/01/27 06:36:58;;;;;;;45.67;20.48;;;5.50;99.90;;;;;;4783176;29;20055;-67
2022/01/27 06:39:24;;;;;;;43.78;20.25;;;5.60;99.90;;;;;;4781534;29;20051;-68
2022/01/27 06:41:50;;;;;;;43.05;19.88;;;5.50;99.90;;;;;;4781587;29;20047;-68
2022/01/27 06:44:16;;;;;;;43.05;20.05;;;5.40;99.90;;;;;;4780622;29;20059;-68
2022/01/27 06:46:41;;;;;;;43.30;21.10;;;5.50;99.90;;;;;;4785135;29;20481;-67
2022/01/27 06:49:07;;;;;;;47.75;20.95;;;5.60;99.90;;;;;;4785531;29;20451;-67
2022/01/27 06:51:33;;;;;;;41.72;19.45;;;5.60;99.90;;;;;;4784535;29;20145;-67
2022/01/27 06:53:59;;;;;;;43.40;19.48;;;5.60;99.90;;;;;;4785341;29;20101;-67
2022/01/27 06:56:26;;;;;;;44.50;19.98;;;5.50;99.90;;;;;;4783965;29;20613;-68
2022/01/27 06:58:52;;;;;;;49.20;20.70;;;5.60;99.90;;;;;;4783439;29;20542;-67
2022/01/27 07:01:18;;;;;;;41.35;19.65;;;5.60;99.90;;;;;;4784035;29;20047;-67
2022/01/27 07:03:44;;;;;;;45.65;19.80;;;5.60;99.90;;;;;;4785348;29;20571;-67
2022/01/27 07:06:10;;;;;;;43.15;21.88;;;5.60;99.90;;;;;;4783887;29;20134;-67
2022/01/27 07:08:36;;;;;;;41.33;18.35;;;5.60;99.90;;;;;;4784132;29;20096;-67
2022/01/27 07:11:02;;;;;;;49.75;21.02;;;5.60;99.90;;;;;;4781862;29;20043;-67
2022/01/27 07:13:27;;;;;;;50.10;21.77;;;5.60;99.90;;;;;;4783984;29;20043;-67
2022/01/27 07:15:55;;;;;;;38.72;19.92;;;5.60;99.90;;;;;;4783952;29;20048;-67
2022/01/27 07:18:20;;;;;;;48.38;21.23;;;5.60;99.90;;;;;;4782805;29;20055;-67
2022/01/27 07:20:46;;;;;;;45.13;19.83;;;5.70;99.90;;;;;;4783677;29;20035;-67
2022/01/27 07:23:12;;;;;;;44.22;19.75;;;5.60;99.90;;;;;;4784487;29;20070;-67
2022/01/27 07:25:38;;;;;;;44.85;19.95;;;5.60;99.90;;;;;;4783534;29;20123;-67
2022/01/27 07:28:04;;;;;;;43.85;20.92;;;5.70;99.90;;;;;;4783339;29;20102;-68
2022/01/27 07:30:29;;;;;;;42.92;19.00;;;5.70;99.90;;;;;;4782831;29;20047;-67
2022/01/27 07:32:55;;;;;;;42.47;18.75;;;5.70;99.90;;;;;;4782357;29;20039;-68
2022/01/27 07:35:21;;;;;;;38.75;18.13;;;5.80;99.90;;;;;;4779971;29;20059;-68
2022/01/27 07:37:47;;;;;;;37.47;19.00;;;5.70;99.90;;;;;;4767885;29;20070;-68
2022/01/27 07:40:13;;;;;;;46.42;19.58;;;5.80;99.90;;;;;;4783437;29;20051;-69
2022/01/27 07:42:40;;;;;;;43.85;19.80;;;5.80;99.90;;;;;;4782003;29;20048;-69
2022/01/27 07:45:07;;;;;;;49.53;18.85;;;5.80;99.90;;;;;;4783183;29;20458;-68
2022/01/27 07:47:34;;;;;;;52.35;19.30;;;5.90;99.90;;;;;;4766969;29;20402;-69
2022/01/27 07:50:00;;;;;;;37.45;17.27;;;6.00;99.90;;;;;;4782311;29;20043;-69
2022/01/27 07:52:25;;;;;;;39.22;17.80;;;6.00;99.90;;;;;;4782251;29;20642;-68
2022/01/27 07:54:51;;;;;;;34.22;16.17;;;6.00;99.90;;;;;;4783597;29;20039;-69
2022/01/27 07:57:17;;;;;;;42.58;16.92;;;6.10;99.90;;;;;;4781884;29;20361;-68
2022/01/27 07:59:43;;;;;;;37.53;15.77;;;6.10;99.90;;;;;;4782340;29;20397;-69
2022/01/27 08:02:09;;;;;;;42.45;14.93;;;6.20;99.90;;;;;;4782361;29;20396;-68
2022/01/27 08:04:34;;;;;;;46.90;16.50;;;6.20;99.90;;;;;;4767366;29;20485;-69
2022/01/27 08:07:02;;;;;;;44.08;15.38;;;6.20;99.90;;;;;;4778969;29;20047;-69
2022/01/27 08:09:28;;;;;;;36.65;14.98;;;6.30;99.90;;;;;;4781244;29;20075;-70
2022/01/27 08:11:54;;;;;;;47.33;15.68;;;6.30;99.90;;;;;;4767300;29;20151;-70
2022/01/27 08:14:19;;;;;;;37.13;15.50;;;6.40;99.90;;;;;;4782871;29;20393;-69
2022/01/27 08:16:46;;;;;;;40.97;15.30;;;6.40;99.90;;;;;;4782680;29;20107;-69
2022/01/27 08:19:11;;;;;;;39.20;14.98;;;6.50;99.90;;;;;;4780685;29;20059;-69
2022/01/27 08:21:37;;;;;;;37.00;14.50;;;6.50;99.90;;;;;;4781415;29;20070;-69
2022/01/27 08:24:03;;;;;;;34.75;13.23;;;6.50;99.90;;;;;;4782199;29;20084;-69
2022/01/27 08:29:20;;;;;;;46.90;15.60;;;6.60;99.90;;;;;;4782336;29;20059;-69
2022/01/27 08:31:59;;;;;;;38.20;14.45;;;6.60;99.90;;;;;;4781470;29;20067;-69
2022/01/27 08:34:42;;;;;;;33.13;13.02;;;6.70;99.90;;;;;;4782095;29;20489;-69
2022/01/27 08:37:10;;;;;;;39.00;14.40;;;6.70;99.90;;;;;;4782652;29;20158;-69
2022/01/27 08:39:36;;;;;;;27.98;10.77;;;7.00;99.90;;;;;;4782256;29;20193;-69
2022/01/27 08:42:02;;;;;;;36.38;12.93;;;6.70;99.90;;;;;;4779493;29;20145;-69
2022/01/27 08:44:28;;;;;;;33.33;12.50;;;6.70;99.90;;;;;;4777242;29;20484;-68
2022/01/27 08:46:54;;;;;;;37.03;13.95;;;6.80;99.90;;;;;;4779036;29;20062;-68
2022/01/27 08:49:24;;;;;;;42.53;13.30;;;6.80;99.90;;;;;;4781780;29;20055;-68
2022/01/27 08:51:50;;;;;;;35.95;14.23;;;6.80;99.90;;;;;;4779485;29;20501;-68
2022/01/27 08:54:16;;;;;;;32.08;12.88;;;6.80;99.90;;;;;;4779967;29;20176;-68
2022/01/27 08:56:42;;;;;;;44.45;13.82;;;6.80;99.90;;;;;;4779952;29;20753;-68
2022/01/27 08:59:08;;;;;;;36.58;13.07;;;6.80;99.90;;;;;;4780337;29;20195;-68
2022/01/27 09:01:34;;;;;;;34.30;13.02;;;7.00;99.90;;;;;;4780523;29;20506;-68
2022/01/27 09:04:00;;;;;;;38.75;13.80;;;6.90;99.90;;;;;;4779138;29;20059;-68
2022/01/27 09:06:28;;;;;;;33.95;12.35;;;6.90;99.90;;;;;;4782369;29;20414;-68
2022/01/27 09:08:55;;;;;;;29.70;11.38;;;6.90;99.90;;;;;;4780437;29;20051;-69
2022/01/27 09:11:22;;;;;;;34.53;12.68;;;7.00;99.90;;;;;;4780419;29;20044;-68
2022/01/27 09:13:47;;;;;;;30.80;12.45;;;7.10;99.90;;;;;;4778135;29;20062;-69
2022/01/27 09:16:13;;;;;;;37.63;11.88;;;7.10;99.90;;;;;;4779855;29;20439;-68
2022/01/27 09:18:39;;;;;;;26.08;9.82;;;7.20;99.90;;;;;;4781644;29;20179;-68
2022/01/27 09:21:17;;;;;;;28.88;9.95;;;7.30;99.90;;;;;;4780544;29;20137;-68
2022/01/27 09:23:42;;;;;;;32.35;10.95;;;7.30;99.90;;;;;;4764442;29;20108;-69
2022/01/27 09:26:26;;;;;;;30.77;10.07;;;7.40;99.90;;;;;;4781179;29;20051;-68
2022/01/27 09:28:51;;;;;;;29.15;9.27;;;7.40;99.90;;;;;;4780210;29;20051;-68
2022/01/27 09:31:17;;;;;;;27.42;9.30;;;7.50;99.90;;;;;;4782603;29;20404;-69
2022/01/27 09:33:43;;;;;;;23.73;9.48;;;7.40;99.90;;;;;;4781628;29;20138;-68
2022/01/27 09:36:12;;;;;;;25.17;8.95;;;7.40;99.90;;;;;;4783022;29;20055;-69
2022/01/27 09:38:38;;;;;;;25.67;8.68;;;7.40;99.90;;;;;;4768616;29;20066;-69
2022/01/27 09:41:07;;;;;;;29.23;9.25;;;7.50;99.90;;;;;;4783689;29;20054;-68
2022/01/27 09:43:34;;;;;;;23.63;8.52;;;7.60;99.90;;;;;;4783500;29;20096;-68
2022/01/27 09:46:04;;;;;;;28.98;9.93;;;7.50;99.90;;;;;;4781726;29;20055;-68
2022/01/27 09:48:36;;;;;;;33.60;8.57;;;7.60;99.90;;;;;;4782563;29;20103;-68
2022/01/27 09:53:38;;;;;;;25.30;7.82;;;7.70;99.90;;;;;;4782533;29;20067;-69
2022/01/27 09:56:04;;;;;;;26.75;7.93;;;7.70;99.90;;;;;;4781867;29;20052;-68
2022/01/27 09:58:29;;;;;;;25.35;8.55;;;7.70;99.90;;;;;;4779775;29;21032;-68
2022/01/27 10:00:55;;;;;;;29.98;8.10;;;7.70;99.90;;;;;;4782560;29;20130;-68
2022/01/27 10:03:21;;;;;;;29.48;8.57;;;7.80;99.90;;;;;;4782960;29;20500;-68
2022/01/27 10:05:47;;;;;;;20.60;7.30;;;7.90;99.90;;;;;;4781870;29;20412;-68
2022/01/27 10:08:17;;;;;;;24.52;7.55;;;7.80;99.90;;;;;;4779676;29;20051;-69
2022/01/27 10:10:45;;;;;;;18.52;7.10;;;7.70;99.90;;;;;;4782422;29;20071;-69
2022/01/27 10:13:31;;;;;;;25.20;7.47;;;7.70;99.90;;;;;;4782253;29;20058;-69
2022/01/27 10:15:57;;;;;;;16.50;5.83;;;7.80;99.90;;;;;;4783400;29;20208;-70
2022/01/27 10:18:25;;;;;;;21.00;6.85;;;7.80;99.90;;;;;;4782954;29;20047;-70
2022/01/27 10:20:59;;;;;;;22.55;7.10;;;7.80;99.90;;;;;;4782066;29;20078;-69
2022/01/27 10:23:30;;;;;;;30.23;8.02;;;7.90;99.90;;;;;;4780307;29;20139;-69
2022/01/27 10:26:07;;;;;;;17.73;6.55;;;7.90;99.90;;;;;;4780998;29;20063;-69
2022/01/27 10:31:23;;;;;;;25.33;7.43;;;7.90;99.90;;;;;;4782005;29;20055;-69
2022/01/27 10:34:03;;;;;;;25.50;6.97;;;7.90;99.90;;;;;;4783624;29;20438;-69
2022/01/27 10:36:41;;;;;;;20.77;6.75;;;8.00;99.90;;;;;;4767251;29;20098;-70
2022/01/27 10:39:13;;;;;;;24.50;7.60;;;7.90;99.90;;;;;;4781675;29;20046;-69
2022/01/27 10:41:55;;;;;;;15.80;5.90;;;8.00;99.90;;;;;;4781027;29;20059;-69
2022/01/27 10:44:23;;;;;;;23.05;6.85;;;8.00;99.90;;;;;;4782352;29;20058;-69
2022/01/27 10:47:12;;;;;;;21.23;7.00;;;8.00;99.90;;;;;;4782143;29;20062;-69
2022/01/27 10:49:44;;;;;;;19.00;7.15;;;8.10;99.90;;;;;;4782323;29;20058;-69
2022/01/27 10:52:30;;;;;;;20.35;7.30;;;8.10;99.90;;;;;;4779924;29;20062;-69
2022/01/27 10:55:00;;;;;;;24.92;7.85;;;8.10;99.90;;;;;;4778958;29;20051;-68
2022/01/27 10:57:26;;;;;;;25.10;6.82;;;8.10;99.90;;;;;;4783478;29;20138;-68
2022/01/27 11:00:10;;;;;;;26.25;7.20;;;8.20;99.90;;;;;;4782155;29;20046;-68
2022/01/27 11:02:53;;;;;;;23.50;7.15;;;8.20;99.90;;;;;;4782118;29;20082;-68
2022/01/27 11:05:22;;;;;;;20.40;6.90;;;8.20;99.90;;;;;;4765249;29;20362;-68
2022/01/27 11:07:48;;;;;;;23.85;6.85;;;8.20;99.90;;;;;;4780609;29;20059;-68
2022/01/27 11:10:15;;;;;;;17.90;6.28;;;8.20;99.90;;;;;;4781419;29;20055;-68
2022/01/27 11:12:43;;;;;;;20.83;6.57;;;8.30;99.90;;;;;;4781187;29;20059;-68
2022/01/27 11:15:11;;;;;;;17.88;6.47;;;8.30;99.90;;;;;;4780857;29;20055;-68
2022/01/27 11:17:38;;;;;;;22.30;7.07;;;8.40;99.90;;;;;;4779495;29;20089;-68
2022/01/27 11:20:22;;;;;;;22.90;6.53;;;8.40;99.90;;;;;;4780528;29;20047;-68
2022/01/27 11:27:58;;;;;;;17.00;6.07;;;8.80;99.90;;;;;;4778688;29;20051;-68
2022/01/27 11:30:42;;;;;;;20.52;6.25;;;9.00;99.90;;;;;;4781509;29;20187;-68
2022/01/27 11:33:14;;;;;;;22.27;6.35;;;9.10;99.90;;;;;;4780079;29;20096;-68
2022/01/27 11:35:40;;;;;;;22.60;6.10;;;9.20;99.90;;;;;;4781018;29;20043;-68
2022/01/27 11:38:08;;;;;;;17.75;5.45;;;9.30;99.90;;;;;;4780511;29;20131;-68
2022/01/27 11:40:39;;;;;;;19.75;4.88;;;9.30;99.90;;;;;;4780189;29;20089;-69
2022/01/27 11:43:04;;;;;;;17.90;5.47;;;9.30;99.90;;;;;;4781272;29;20114;-68
2022/01/27 11:45:51;;;;;;;17.05;5.00;;;9.40;99.90;;;;;;4780272;29;20134;-68
2022/01/27 11:48:24;;;;;;;21.30;5.47;;;9.40;99.90;;;;;;4782471;29;20042;-68
2022/01/27 11:50:54;;;;;;;18.65;5.45;;;9.30;99.90;;;;;;4781884;29;20051;-69
2022/01/27 11:53:30;;;;;;;14.35;5.10;;;9.30;99.90;;;;;;4779769;29;20059;-69
2022/01/27 11:55:57;;;;;;;;;;;9.20;99.90;;;;;;4782791;29;20413;-68
2022/01/27 11:58:24;;;;;;;15.60;5.18;;;9.10;99.90;;;;;;4781765;29;19929;-69
2022/01/27 12:01:29;;;;;;;17.75;5.05;;;9.10;99.90;;;;;;4782225;29;20205;-68
2022/01/27 12:04:07;;;;;;;14.98;4.68;;;9.10;99.90;;;;;;4782687;29;20116;-68
2022/01/27 12:06:37;;;;;;;17.00;4.05;;;9.10;99.90;;;;;;4783532;29;20082;-68
2022/01/27 12:09:18;;;;;;;14.40;3.75;;;9.10;99.90;;;;;;4782099;29;20444;-69
2022/01/27 12:11:47;;;;;;;16.35;4.35;;;9.20;99.90;;;;;;4782776;29;20043;-69
2022/01/27 12:14:15;;;;;;;16.90;3.90;;;9.30;99.90;;;;;;4782705;29;20069;-68
2022/01/27 12:16:53;;;;;;;13.88;3.53;;;9.20;99.90;;;;;;4783704;29;20039;-69
2022/01/27 12:19:20;;;;;;;19.83;3.45;;;9.30;99.90;;;;;;4782784;29;20130;-68
2022/01/27 12:21:53;;;;;;;12.82;2.97;;;9.20;99.90;;;;;;4782263;29;20474;-68
2022/01/27 12:24:27;;;;;;;8.50;2.83;;;9.20;99.90;;;;;;4781709;29;20053;-68
2022/01/27 12:26:55;;;;;;;17.60;3.45;;;9.20;99.90;;;;;;4781531;29;20067;-69
2022/01/27 12:29:31;;;;;;;16.33;3.25;;;9.20;99.90;;;;;;4782814;29;20065;-69
2022/01/27 12:32:28;;;;;;;10.13;3.28;;;9.30;99.90;;;;;;4781517;29;20493;-68
2022/01/27 12:35:01;;;;;;;14.05;3.25;;;9.20;99.90;;;;;;4779865;29;21037;-69
2022/01/27 12:37:34;;;;;;;14.32;3.95;;;9.20;99.90;;;;;;4781590;29;20051;-68
2022/01/27 12:40:03;;;;;;;14.85;4.22;;;9.10;99.90;;;;;;4781888;29;20047;-68
2022/01/27 12:42:35;;;;;;;19.13;4.28;;;9.10;99.90;;;;;;4781993;29;20051;-68
2022/01/27 12:45:02;;;;;;;17.48;4.45;;;9.10;99.90;;;;;;4781548;29;20071;-69
2022/01/27 12:47:30;;;;;;;18.70;3.75;;;9.10;99.90;;;;;;4780812;29;20047;-68
2022/01/27 12:50:08;;;;;;;14.55;3.08;;;9.10;99.90;;;;;;4783183;29;20193;-68
2022/01/27 12:52:40;;;;;;;15.63;3.70;;;9.20;99.90;;;;;;4780292;29;20055;-68
2022/01/27 12:55:07;;;;;;;16.38;3.33;;;9.20;99.90;;;;;;4781424;29;20070;-68
2022/01/27 12:57:33;;;;;;;17.10;3.72;;;9.20;99.90;;;;;;4782349;29;20067;-69
2022/01/27 13:00:01;;;;;;;18.45;3.53;;;9.20;99.90;;;;;;4781577;29;20059;-69
2022/01/27 13:02:28;;;;;;;15.82;3.47;;;9.20;99.90;;;;;;4781007;29;20058;-68
2022/01/27 13:04:56;;;;;;;15.52;3.28;;;9.20;99.90;;;;;;4783614;29;20054;-68
2022/01/27 13:07:23;;;;;;;18.42;3.53;;;9.20;99.90;;;;;;4784232;29;20100;-67
2022/01/27 13:10:01;;;;;;;15.40;3.60;;;9.20;99.90;;;;;;4785489;29;20050;-68
2022/01/27 13:12:36;;;;;;;16.08;3.45;;;9.20;99.90;;;;;;4784449;29;20055;-67
2022/01/27 13:15:08;;;;;;;19.00;3.42;;;9.30;99.90;;;;;;4784411;29;20070;-67
2022/01/27 13:17:42;;;;;;;17.52;3.28;;;9.20;99.90;;;;;;4785320;29;20091;-67
2022/01/27 13:20:19;;;;;;;14.60;3.22;;;9.30;99.90;;;;;;4785773;29;20066;-69
2022/01/27 13:22:46;;;;;;;12.55;3.78;;;9.30;99.90;;;;;;4784766;29;20067;-68
2022/01/27 13:25:12;;;;;;;17.98;4.10;;;9.20;99.90;;;;;;4786191;29;20446;-67
2022/01/27 13:27:38;;;;;;;19.15;3.63;;;9.20;99.90;;;;;;4784904;29;20103;-67
2022/01/27 13:30:04;;;;;;;19.20;3.90;;;9.20;99.90;;;;;;4786158;29;20059;-68
2022/01/27 13:32:30;;;;;;;18.17;3.65;;;9.10;99.90;;;;;;4784656;29;20489;-67
2022/01/27 13:34:56;;;;;;;13.80;3.17;;;9.20;99.90;;;;;;4785908;29;20054;-68
2022/01/27 13:37:33;;;;;;;21.58;5.93;;;9.10;99.90;;;;;;4785738;29;20043;-68
2022/01/27 13:42:55;;;;;;;16.55;3.28;;;9.10;99.90;;;;;;4784344;29;20062;-68
2022/01/27 13:45:21;;;;;;;15.27;3.63;;;9.10;99.90;;;;;;4784314;29;20137;-68
2022/01/27 13:47:47;;;;;;;14.77;3.60;;;9.10;99.90;;;;;;4783812;29;20400;-67